CYQQ

Comox Airport

Comox, , Canada
METAR CYQQ 180200Z 34013KT 20SM BKN250 22/08 A3017 RMK CI5 CONTRAILS SLP217
Observed Flight Rules
Aug-18 @ 02:00 UTC (30 minutes ago) Visual Flight Rules
Wind Visibility Clouds
340° at 13 knots 20 miles
  • Broken at 25,000' AGL
Temperatures Readings
Current 22°C / 72°F
Dewpoint 8°C / 46°F
Humidity 41%
Altimeter 30.17" Hg
Pressure 1021.7 hPa
Elevation 24
METAR CYQQ 180200Z 34013KT 20SM BKN250 22/08 A3017 RMK CI5 CONTRAILS SLP217
Observed Flight Rules
Aug-18 @ 02:00 UTC
(30 minutes ago)
VFR
Wind Visibility
340° at 13 knots 20 miles
Clouds
  • Broken at 25,000' AGL
Temperature Dewpoint
22°C / 72°F 8°C / 46°F
Humidity Altimeter Pressure
41% 30.17" Hg 1021.7 hPa